Terminal Aerodrome Forecast
Issued by NWS Cleveland, OH

Home | Current Version | Previous Version | Graphics & Text | Print | Product List | Glossary On
Versions: 1 2 3 4 5 6 7 8 9 10 11 12 13 14 15 16 17 18 19 20 21 22 23 24 25 26 27 28
000
FTUS41 KCLE 292000 AAA
TAFCLE
TAF AMD
KCLE 292054Z 2921/3024 27015KT P6SM BKN040
     FM300030 28010KT P6SM BKN028
     FM300600 30007KT P6SM BKN018
     FM302000 29006KT P6SM BKN025=

USA.gov is the U.S. government's official web portal to all federal, state and local government web resources and services.